sensor_id;sensor_type;location;lat;lon;timestamp;P1;durP1;ratioP1;P2;durP2;ratioP2
4674;SDS011;2351;50.812;12.872;2023-12-20T00:02:10;9.03;;;4.87;;
4674;SDS011;2351;50.812;12.872;2023-12-20T00:04:42;5.90;;;4.90;;
4674;SDS011;2351;50.812;12.872;2023-12-20T00:07:15;6.30;;;4.50;;
4674;SDS011;2351;50.812;12.872;2023-12-20T00:09:48;5.37;;;4.00;;
4674;SDS011;2351;50.812;12.872;2023-12-20T00:12:20;6.77;;;4.77;;
4674;SDS011;2351;50.812;12.872;2023-12-20T00:14:51;5.97;;;3.80;;
4674;SDS011;2351;50.812;12.872;2023-12-20T00:17:23;4.37;;;3.77;;
4674;SDS011;2351;50.812;12.872;2023-12-20T00:19:55;4.23;;;3.43;;
4674;SDS011;2351;50.812;12.872;2023-12-20T00:22:26;5.50;;;3.57;;
4674;SDS011;2351;50.812;12.872;2023-12-20T00:24:59;5.57;;;3.87;;
4674;SDS011;2351;50.812;12.872;2023-12-20T00:27:31;4.53;;;4.03;;
4674;SDS011;2351;50.812;12.872;2023-12-20T00:30:03;5.77;;;3.83;;
4674;SDS011;2351;50.812;12.872;2023-12-20T00:32:35;3.17;;;2.87;;
4674;SDS011;2351;50.812;12.872;2023-12-20T00:35:07;6.20;;;3.50;;
4674;SDS011;2351;50.812;12.872;2023-12-20T00:37:39;5.00;;;3.70;;
4674;SDS011;2351;50.812;12.872;2023-12-20T00:40:12;5.77;;;3.03;;
4674;SDS011;2351;50.812;12.872;2023-12-20T00:42:44;5.10;;;3.20;;
4674;SDS011;2351;50.812;12.872;2023-12-20T00:45:17;3.57;;;2.60;;
4674;SDS011;2351;50.812;12.872;2023-12-20T00:47:48;3.03;;;2.77;;
4674;SDS011;2351;50.812;12.872;2023-12-20T00:50:20;4.07;;;3.20;;
4674;SDS011;2351;50.812;12.872;2023-12-20T00:52:52;4.07;;;2.83;;
4674;SDS011;2351;50.812;12.872;2023-12-20T00:55:26;2.97;;;2.60;;
4674;SDS011;2351;50.812;12.872;2023-12-20T00:57:57;3.47;;;2.50;;
4674;SDS011;2351;50.812;12.872;2023-12-20T01:00:30;2.73;;;2.47;;
4674;SDS011;2351;50.812;12.872;2023-12-20T01:03:02;2.30;;;2.10;;
4674;SDS011;2351;50.812;12.872;2023-12-20T01:05:33;2.77;;;2.53;;
4674;SDS011;2351;50.812;12.872;2023-12-20T01:08:05;2.87;;;2.20;;
4674;SDS011;2351;50.812;12.872;2023-12-20T01:10:39;5.43;;;1.80;;
4674;SDS011;2351;50.812;12.872;2023-12-20T01:13:10;2.53;;;2.30;;
4674;SDS011;2351;50.812;12.872;2023-12-20T01:15:42;3.17;;;2.47;;
4674;SDS011;2351;50.812;12.872;2023-12-20T01:18:14;2.50;;;1.97;;
4674;SDS011;2351;50.812;12.872;2023-12-20T01:20:45;3.00;;;2.37;;
4674;SDS011;2351;50.812;12.872;2023-12-20T01:23:17;2.23;;;2.03;;
4674;SDS011;2351;50.812;12.872;2023-12-20T01:25:50;1.93;;;1.80;;
4674;SDS011;2351;50.812;12.872;2023-12-20T01:28:22;2.27;;;2.07;;
4674;SDS011;2351;50.812;12.872;2023-12-20T01:30:53;1.70;;;1.60;;
4674;SDS011;2351;50.812;12.872;2023-12-20T01:33:25;2.10;;;2.00;;
4674;SDS011;2351;50.812;12.872;2023-12-20T01:35:57;1.70;;;1.60;;
4674;SDS011;2351;50.812;12.872;2023-12-20T01:38:29;1.70;;;1.60;;
4674;SDS011;2351;50.812;12.872;2023-12-20T01:41:02;1.60;;;1.50;;
4674;SDS011;2351;50.812;12.872;2023-12-20T01:43:33;1.57;;;1.47;;
4674;SDS011;2351;50.812;12.872;2023-12-20T01:46:05;2.00;;;1.80;;
4674;SDS011;2351;50.812;12.872;2023-12-20T01:48:37;1.80;;;1.70;;
4674;SDS011;2351;50.812;12.872;2023-12-20T01:51:09;1.30;;;1.20;;
4674;SDS011;2351;50.812;12.872;2023-12-20T01:53:42;1.13;;;1.13;;
4674;SDS011;2351;50.812;12.872;2023-12-20T01:56:15;1.00;;;1.00;;
4674;SDS011;2351;50.812;12.872;2023-12-20T01:58:47;0.97;;;0.97;;
4674;SDS011;2351;50.812;12.872;2023-12-20T02:01:19;1.73;;;1.63;;
4674;SDS011;2351;50.812;12.872;2023-12-20T02:03:51;1.03;;;1.03;;
4674;SDS011;2351;50.812;12.872;2023-12-20T02:06:23;1.17;;;1.07;;
4674;SDS011;2351;50.812;12.872;2023-12-20T02:09:00;2.03;;;1.57;;
4674;SDS011;2351;50.812;12.872;2023-12-20T02:11:33;0.90;;;0.90;;
4674;SDS011;2351;50.812;12.872;2023-12-20T02:14:07;0.80;;;0.80;;
4674;SDS011;2351;50.812;12.872;2023-12-20T02:16:38;1.10;;;1.10;;
4674;SDS011;2351;50.812;12.872;2023-12-20T02:19:12;1.10;;;1.00;;
4674;SDS011;2351;50.812;12.872;2023-12-20T02:21:47;1.30;;;1.20;;
4674;SDS011;2351;50.812;12.872;2023-12-20T02:24:18;1.20;;;1.10;;
4674;SDS011;2351;50.812;12.872;2023-12-20T02:26:50;1.00;;;1.00;;
4674;SDS011;2351;50.812;12.872;2023-12-20T02:29:22;4.20;;;1.20;;
4674;SDS011;2351;50.812;12.872;2023-12-20T02:31:54;1.07;;;0.97;;
4674;SDS011;2351;50.812;12.872;2023-12-20T02:34:25;1.37;;;0.90;;
4674;SDS011;2351;50.812;12.872;2023-12-20T02:36:59;1.03;;;1.03;;
4674;SDS011;2351;50.812;12.872;2023-12-20T02:39:30;1.20;;;1.20;;
4674;SDS011;2351;50.812;12.872;2023-12-20T02:42:03;1.00;;;1.00;;
4674;SDS011;2351;50.812;12.872;2023-12-20T02:44:35;1.20;;;1.13;;
4674;SDS011;2351;50.812;12.872;2023-12-20T02:47:07;0.70;;;0.70;;
4674;SDS011;2351;50.812;12.872;2023-12-20T02:49:39;0.80;;;0.80;;
4674;SDS011;2351;50.812;12.872;2023-12-20T02:52:12;0.70;;;0.70;;
4674;SDS011;2351;50.812;12.872;2023-12-20T02:54:44;0.90;;;0.87;;
4674;SDS011;2351;50.812;12.872;2023-12-20T02:57:15;2.53;;;1.07;;
4674;SDS011;2351;50.812;12.872;2023-12-20T02:59:47;1.00;;;1.00;;
4674;SDS011;2351;50.812;12.872;2023-12-20T03:02:19;1.93;;;1.30;;
4674;SDS011;2351;50.812;12.872;2023-12-20T03:04:51;1.03;;;1.03;;
4674;SDS011;2351;50.812;12.872;2023-12-20T03:07:24;1.10;;;1.10;;
4674;SDS011;2351;50.812;12.872;2023-12-20T03:09:55;1.10;;;1.10;;
4674;SDS011;2351;50.812;12.872;2023-12-20T03:12:27;0.90;;;0.60;;
4674;SDS011;2351;50.812;12.872;2023-12-20T03:14:59;1.27;;;0.70;;
4674;SDS011;2351;50.812;12.872;2023-12-20T03:17:30;1.43;;;1.33;;
4674;SDS011;2351;50.812;12.872;2023-12-20T03:20:02;1.30;;;1.30;;
4674;SDS011;2351;50.812;12.872;2023-12-20T03:22:36;0.60;;;0.60;;
4674;SDS011;2351;50.812;12.872;2023-12-20T03:25:07;0.90;;;0.90;;
4674;SDS011;2351;50.812;12.872;2023-12-20T03:27:39;1.17;;;0.90;;
4674;SDS011;2351;50.812;12.872;2023-12-20T03:30:11;1.10;;;1.10;;
4674;SDS011;2351;50.812;12.872;2023-12-20T03:32:43;0.60;;;0.60;;
4674;SDS011;2351;50.812;12.872;2023-12-20T03:35:15;0.60;;;0.60;;
4674;SDS011;2351;50.812;12.872;2023-12-20T03:37:48;0.73;;;0.73;;
4674;SDS011;2351;50.812;12.872;2023-12-20T03:40:20;0.60;;;0.60;;
4674;SDS011;2351;50.812;12.872;2023-12-20T03:42:52;1.10;;;1.00;;
4674;SDS011;2351;50.812;12.872;2023-12-20T03:45:24;0.60;;;0.60;;
4674;SDS011;2351;50.812;12.872;2023-12-20T03:47:55;0.70;;;0.70;;
4674;SDS011;2351;50.812;12.872;2023-12-20T03:50:28;1.00;;;1.00;;
4674;SDS011;2351;50.812;12.872;2023-12-20T03:53:01;0.70;;;0.70;;
4674;SDS011;2351;50.812;12.872;2023-12-20T03:55:34;1.10;;;0.73;;
4674;SDS011;2351;50.812;12.872;2023-12-20T03:58:05;0.90;;;0.90;;
4674;SDS011;2351;50.812;12.872;2023-12-20T04:00:37;0.80;;;0.80;;
4674;SDS011;2351;50.812;12.872;2023-12-20T04:03:09;2.20;;;0.77;;
4674;SDS011;2351;50.812;12.872;2023-12-20T04:05:42;0.70;;;0.70;;
4674;SDS011;2351;50.812;12.872;2023-12-20T04:08:15;0.60;;;0.50;;
4674;SDS011;2351;50.812;12.872;2023-12-20T04:10:47;1.03;;;0.97;;
4674;SDS011;2351;50.812;12.872;2023-12-20T04:13:19;0.73;;;0.73;;
4674;SDS011;2351;50.812;12.872;2023-12-20T04:15:50;0.80;;;0.73;;
4674;SDS011;2351;50.812;12.872;2023-12-20T04:18:22;0.97;;;0.97;;
4674;SDS011;2351;50.812;12.872;2023-12-20T04:20:54;1.57;;;1.47;;
4674;SDS011;2351;50.812;12.872;2023-12-20T04:23:27;0.70;;;0.70;;
4674;SDS011;2351;50.812;12.872;2023-12-20T04:25:59;0.57;;;0.57;;
4674;SDS011;2351;50.812;12.872;2023-12-20T04:28:30;0.60;;;0.60;;
4674;SDS011;2351;50.812;12.872;2023-12-20T04:31:02;1.00;;;0.60;;
4674;SDS011;2351;50.812;12.872;2023-12-20T04:33:34;0.83;;;0.83;;
4674;SDS011;2351;50.812;12.872;2023-12-20T04:36:06;0.50;;;0.50;;
4674;SDS011;2351;50.812;12.872;2023-12-20T04:38:40;0.70;;;0.70;;
4674;SDS011;2351;50.812;12.872;2023-12-20T04:41:12;0.83;;;0.83;;
4674;SDS011;2351;50.812;12.872;2023-12-20T04:43:45;0.80;;;0.80;;
4674;SDS011;2351;50.812;12.872;2023-12-20T04:46:17;0.70;;;0.70;;
4674;SDS011;2351;50.812;12.872;2023-12-20T04:48:49;0.60;;;0.60;;
4674;SDS011;2351;50.812;12.872;2023-12-20T04:51:20;1.00;;;0.97;;
4674;SDS011;2351;50.812;12.872;2023-12-20T04:53:54;0.90;;;0.77;;
4674;SDS011;2351;50.812;12.872;2023-12-20T04:56:25;2.00;;;0.90;;
4674;SDS011;2351;50.812;12.872;2023-12-20T04:58:57;0.53;;;0.53;;
4674;SDS011;2351;50.812;12.872;2023-12-20T05:01:29;1.30;;;0.80;;
4674;SDS011;2351;50.812;12.872;2023-12-20T05:04:00;0.70;;;0.63;;
4674;SDS011;2351;50.812;12.872;2023-12-20T05:06:32;0.70;;;0.70;;
4674;SDS011;2351;50.812;12.872;2023-12-20T05:09:05;3.73;;;0.87;;
4674;SDS011;2351;50.812;12.872;2023-12-20T05:11:37;0.80;;;0.63;;
4674;SDS011;2351;50.812;12.872;2023-12-20T05:14:09;0.93;;;0.70;;
4674;SDS011;2351;50.812;12.872;2023-12-20T05:16:41;1.57;;;1.00;;
4674;SDS011;2351;50.812;12.872;2023-12-20T05:19:12;1.90;;;0.90;;
4674;SDS011;2351;50.812;12.872;2023-12-20T05:21:44;0.80;;;0.80;;
4674;SDS011;2351;50.812;12.872;2023-12-20T05:24:17;2.40;;;0.83;;
4674;SDS011;2351;50.812;12.872;2023-12-20T05:26:49;1.00;;;1.00;;
4674;SDS011;2351;50.812;12.872;2023-12-20T05:29:20;0.63;;;0.63;;
4674;SDS011;2351;50.812;12.872;2023-12-20T05:31:53;6.63;;;0.80;;
4674;SDS011;2351;50.812;12.872;2023-12-20T05:34:25;1.37;;;1.10;;
4674;SDS011;2351;50.812;12.872;2023-12-20T05:36:57;0.80;;;0.80;;
4674;SDS011;2351;50.812;12.872;2023-12-20T05:39:30;0.80;;;0.77;;
4674;SDS011;2351;50.812;12.872;2023-12-20T05:42:02;0.70;;;0.70;;
4674;SDS011;2351;50.812;12.872;2023-12-20T05:44:34;0.63;;;0.63;;
4674;SDS011;2351;50.812;12.872;2023-12-20T05:47:06;1.47;;;1.07;;
4674;SDS011;2351;50.812;12.872;2023-12-20T05:49:38;1.23;;;1.13;;
4674;SDS011;2351;50.812;12.872;2023-12-20T05:52:09;0.90;;;0.90;;
4674;SDS011;2351;50.812;12.872;2023-12-20T05:54:42;4.37;;;0.93;;
4674;SDS011;2351;50.812;12.872;2023-12-20T05:57:14;1.00;;;1.00;;
4674;SDS011;2351;50.812;12.872;2023-12-20T05:59:46;2.03;;;1.10;;
4674;SDS011;2351;50.812;12.872;2023-12-20T06:02:17;1.37;;;1.27;;
4674;SDS011;2351;50.812;12.872;2023-12-20T06:04:49;1.57;;;1.47;;
4674;SDS011;2351;50.812;12.872;2023-12-20T06:07:21;3.40;;;1.07;;
4674;SDS011;2351;50.812;12.872;2023-12-20T06:09:54;1.70;;;1.60;;
4674;SDS011;2351;50.812;12.872;2023-12-20T06:12:26;1.70;;;1.60;;
4674;SDS011;2351;50.812;12.872;2023-12-20T06:14:58;1.90;;;1.37;;
4674;SDS011;2351;50.812;12.872;2023-12-20T06:17:30;1.73;;;1.63;;
4674;SDS011;2351;50.812;12.872;2023-12-20T06:20:02;5.03;;;2.00;;
4674;SDS011;2351;50.812;12.872;2023-12-20T06:22:37;1.83;;;1.70;;
4674;SDS011;2351;50.812;12.872;2023-12-20T06:25:10;2.23;;;2.03;;
4674;SDS011;2351;50.812;12.872;2023-12-20T06:27:42;3.80;;;2.27;;
4674;SDS011;2351;50.812;12.872;2023-12-20T06:30:15;3.20;;;2.50;;
4674;SDS011;2351;50.812;12.872;2023-12-20T06:32:46;2.20;;;2.00;;
4674;SDS011;2351;50.812;12.872;2023-12-20T06:35:18;2.37;;;2.17;;
4674;SDS011;2351;50.812;12.872;2023-12-20T06:37:50;2.70;;;2.50;;
4674;SDS011;2351;50.812;12.872;2023-12-20T06:40:23;3.17;;;2.10;;
4674;SDS011;2351;50.812;12.872;2023-12-20T06:42:55;2.33;;;2.20;;
4674;SDS011;2351;50.812;12.872;2023-12-20T06:45:27;2.77;;;2.57;;
4674;SDS011;2351;50.812;12.872;2023-12-20T06:47:58;2.30;;;2.15;;
4674;SDS011;2351;50.812;12.872;2023-12-20T06:50:30;1.77;;;1.67;;
4674;SDS011;2351;50.812;12.872;2023-12-20T06:53:02;4.60;;;2.53;;
4674;SDS011;2351;50.812;12.872;2023-12-20T06:55:38;2.00;;;1.80;;
4674;SDS011;2351;50.812;12.872;2023-12-20T06:58:10;3.20;;;2.30;;
4674;SDS011;2351;50.812;12.872;2023-12-20T07:00:41;2.30;;;2.10;;
4674;SDS011;2351;50.812;12.872;2023-12-20T07:03:13;2.23;;;2.00;;
4674;SDS011;2351;50.812;12.872;2023-12-20T07:05:45;3.67;;;2.20;;
4674;SDS011;2351;50.812;12.872;2023-12-20T07:08:16;2.43;;;2.23;;
4674;SDS011;2351;50.812;12.872;2023-12-20T07:10:50;2.93;;;2.73;;
4674;SDS011;2351;50.812;12.872;2023-12-20T07:13:22;2.20;;;2.03;;
4674;SDS011;2351;50.812;12.872;2023-12-20T07:15:54;2.30;;;2.10;;
4674;SDS011;2351;50.812;12.872;2023-12-20T07:18:25;8.20;;;2.77;;
4674;SDS011;2351;50.812;12.872;2023-12-20T07:20:57;3.40;;;2.50;;
4674;SDS011;2351;50.812;12.872;2023-12-20T07:23:29;2.33;;;2.00;;
4674;SDS011;2351;50.812;12.872;2023-12-20T07:26:02;3.17;;;2.50;;
4674;SDS011;2351;50.812;12.872;2023-12-20T07:28:34;2.53;;;2.33;;
4674;SDS011;2351;50.812;12.872;2023-12-20T07:31:06;2.50;;;2.23;;
4674;SDS011;2351;50.812;12.872;2023-12-20T07:33:38;2.70;;;2.50;;
4674;SDS011;2351;50.812;12.872;2023-12-20T07:36:10;2.97;;;2.67;;
4674;SDS011;2351;50.812;12.872;2023-12-20T07:38:41;2.63;;;2.43;;
4674;SDS011;2351;50.812;12.872;2023-12-20T07:41:15;8.40;;;2.67;;
4674;SDS011;2351;50.812;12.872;2023-12-20T07:43:47;2.97;;;2.47;;
4674;SDS011;2351;50.812;12.872;2023-12-20T07:46:20;2.70;;;2.30;;
4674;SDS011;2351;50.812;12.872;2023-12-20T07:48:53;4.37;;;2.43;;
4674;SDS011;2351;50.812;12.872;2023-12-20T07:51:25;2.30;;;2.13;;
4674;SDS011;2351;50.812;12.872;2023-12-20T07:53:57;2.23;;;2.00;;
4674;SDS011;2351;50.812;12.872;2023-12-20T07:56:31;5.97;;;3.00;;
4674;SDS011;2351;50.812;12.872;2023-12-20T07:59:03;3.90;;;3.40;;
4674;SDS011;2351;50.812;12.872;2023-12-20T08:01:35;5.40;;;4.03;;
4674;SDS011;2351;50.812;12.872;2023-12-20T08:04:07;10.63;;;5.23;;
4674;SDS011;2351;50.812;12.872;2023-12-20T08:06:38;5.70;;;3.77;;
4674;SDS011;2351;50.812;12.872;2023-12-20T08:09:10;5.10;;;3.07;;
4674;SDS011;2351;50.812;12.872;2023-12-20T08:11:45;5.10;;;3.30;;
4674;SDS011;2351;50.812;12.872;2023-12-20T08:14:17;8.80;;;3.13;;
4674;SDS011;2351;50.812;12.872;2023-12-20T08:16:49;3.80;;;3.20;;
4674;SDS011;2351;50.812;12.872;2023-12-20T08:19:20;11.63;;;2.67;;
4674;SDS011;2351;50.812;12.872;2023-12-20T08:21:52;2.00;;;1.90;;
4674;SDS011;2351;50.812;12.872;2023-12-20T08:24:24;2.70;;;2.50;;
4674;SDS011;2351;50.812;12.872;2023-12-20T08:26:57;3.60;;;3.00;;
4674;SDS011;2351;50.812;12.872;2023-12-20T08:29:28;4.17;;;3.10;;
4674;SDS011;2351;50.812;12.872;2023-12-20T08:32:00;4.00;;;3.20;;
4674;SDS011;2351;50.812;12.872;2023-12-20T08:34:32;2.90;;;2.63;;
4674;SDS011;2351;50.812;12.872;2023-12-20T08:37:03;3.40;;;2.63;;
4674;SDS011;2351;50.812;12.872;2023-12-20T08:39:35;3.10;;;2.90;;
4674;SDS011;2351;50.812;12.872;2023-12-20T08:42:08;2.90;;;2.50;;
4674;SDS011;2351;50.812;12.872;2023-12-20T08:44:40;3.80;;;2.43;;
4674;SDS011;2351;50.812;12.872;2023-12-20T08:47:11;5.40;;;3.17;;
4674;SDS011;2351;50.812;12.872;2023-12-20T08:49:46;3.33;;;2.50;;
4674;SDS011;2351;50.812;12.872;2023-12-20T08:52:17;2.30;;;2.10;;
4674;SDS011;2351;50.812;12.872;2023-12-20T08:54:49;4.10;;;2.80;;
4674;SDS011;2351;50.812;12.872;2023-12-20T08:57:23;8.13;;;2.77;;
4674;SDS011;2351;50.812;12.872;2023-12-20T08:59:55;3.90;;;2.77;;
4674;SDS011;2351;50.812;12.872;2023-12-20T09:02:27;2.90;;;2.10;;
4674;SDS011;2351;50.812;12.872;2023-12-20T09:04:59;2.00;;;1.83;;
4674;SDS011;2351;50.812;12.872;2023-12-20T09:07:30;2.63;;;2.43;;
4674;SDS011;2351;50.812;12.872;2023-12-20T09:10:02;3.37;;;2.30;;
4674;SDS011;2351;50.812;12.872;2023-12-20T09:12:36;2.53;;;2.30;;
4674;SDS011;2351;50.812;12.872;2023-12-20T09:15:10;2.80;;;1.67;;
4674;SDS011;2351;50.812;12.872;2023-12-20T09:17:41;2.30;;;1.90;;
4674;SDS011;2351;50.812;12.872;2023-12-20T09:20:14;3.73;;;1.57;;
4674;SDS011;2351;50.812;12.872;2023-12-20T09:22:45;2.37;;;1.87;;
4674;SDS011;2351;50.812;12.872;2023-12-20T09:25:17;2.30;;;1.63;;
4674;SDS011;2351;50.812;12.872;2023-12-20T09:27:50;2.40;;;1.87;;
4674;SDS011;2351;50.812;12.872;2023-12-20T09:30:22;1.77;;;1.67;;
4674;SDS011;2351;50.812;12.872;2023-12-20T09:32:54;2.83;;;2.53;;
4674;SDS011;2351;50.812;12.872;2023-12-20T09:35:26;6.20;;;2.17;;
4674;SDS011;2351;50.812;12.872;2023-12-20T09:37:57;2.23;;;2.03;;
4674;SDS011;2351;50.812;12.872;2023-12-20T09:40:29;4.43;;;2.40;;
4674;SDS011;2351;50.812;12.872;2023-12-20T09:43:08;5.50;;;2.60;;
4674;SDS011;2351;50.812;12.872;2023-12-20T09:45:42;8.87;;;2.83;;
4674;SDS011;2351;50.812;12.872;2023-12-20T09:48:17;3.97;;;2.70;;
4674;SDS011;2351;50.812;12.872;2023-12-20T09:50:50;2.40;;;2.00;;
4674;SDS011;2351;50.812;12.872;2023-12-20T09:53:21;3.30;;;1.93;;
4674;SDS011;2351;50.812;12.872;2023-12-20T09:55:59;2.63;;;2.43;;
4674;SDS011;2351;50.812;12.872;2023-12-20T09:58:32;2.53;;;2.33;;
4674;SDS011;2351;50.812;12.872;2023-12-20T10:01:07;10.50;;;2.50;;
4674;SDS011;2351;50.812;12.872;2023-12-20T10:03:39;2.83;;;2.50;;
4674;SDS011;2351;50.812;12.872;2023-12-20T10:06:12;2.60;;;2.40;;
4674;SDS011;2351;50.812;12.872;2023-12-20T10:08:44;4.40;;;2.57;;
4674;SDS011;2351;50.812;12.872;2023-12-20T10:11:16;4.00;;;2.20;;
4674;SDS011;2351;50.812;12.872;2023-12-20T10:13:49;7.33;;;3.50;;
4674;SDS011;2351;50.812;12.872;2023-12-20T10:16:24;2.77;;;2.37;;
4674;SDS011;2351;50.812;12.872;2023-12-20T10:18:56;2.23;;;2.03;;
4674;SDS011;2351;50.812;12.872;2023-12-20T10:21:28;3.23;;;2.43;;
4674;SDS011;2351;50.812;12.872;2023-12-20T10:24:00;6.37;;;2.43;;
4674;SDS011;2351;50.812;12.872;2023-12-20T10:26:32;2.23;;;2.13;;
4674;SDS011;2351;50.812;12.872;2023-12-20T10:29:05;4.27;;;2.03;;
4674;SDS011;2351;50.812;12.872;2023-12-20T10:31:37;3.50;;;2.70;;
4674;SDS011;2351;50.812;12.872;2023-12-20T10:34:09;7.13;;;3.00;;
4674;SDS011;2351;50.812;12.872;2023-12-20T10:36:41;4.23;;;2.20;;
4674;SDS011;2351;50.812;12.872;2023-12-20T10:39:13;3.40;;;2.67;;
4674;SDS011;2351;50.812;12.872;2023-12-20T10:41:46;2.97;;;2.50;;
4674;SDS011;2351;50.812;12.872;2023-12-20T10:44:20;3.50;;;2.00;;
4674;SDS011;2351;50.812;12.872;2023-12-20T10:46:52;4.30;;;2.27;;
4674;SDS011;2351;50.812;12.872;2023-12-20T10:49:28;2.27;;;2.10;;
4674;SDS011;2351;50.812;12.872;2023-12-20T10:52:02;4.60;;;2.60;;
4674;SDS011;2351;50.812;12.872;2023-12-20T10:54:37;7.53;;;2.43;;
4674;SDS011;2351;50.812;12.872;2023-12-20T10:57:09;4.50;;;2.43;;
4674;SDS011;2351;50.812;12.872;2023-12-20T10:59:42;3.10;;;2.30;;
4674;SDS011;2351;50.812;12.872;2023-12-20T11:02:17;2.20;;;2.03;;
4674;SDS011;2351;50.812;12.872;2023-12-20T11:04:50;2.13;;;2.00;;
4674;SDS011;2351;50.812;12.872;2023-12-20T11:07:29;3.60;;;2.10;;
4674;SDS011;2351;50.812;12.872;2023-12-20T11:10:10;3.73;;;2.07;;
4674;SDS011;2351;50.812;12.872;2023-12-20T11:12:47;2.93;;;2.37;;
4674;SDS011;2351;50.812;12.872;2023-12-20T11:15:25;4.77;;;2.40;;
4674;SDS011;2351;50.812;12.872;2023-12-20T11:17:58;8.40;;;3.33;;
4674;SDS011;2351;50.812;12.872;2023-12-20T11:20:35;4.17;;;2.57;;
4674;SDS011;2351;50.812;12.872;2023-12-20T11:23:09;4.17;;;2.30;;
4674;SDS011;2351;50.812;12.872;2023-12-20T11:25:48;7.70;;;2.27;;
4674;SDS011;2351;50.812;12.872;2023-12-20T11:28:23;3.93;;;2.07;;
4674;SDS011;2351;50.812;12.872;2023-12-20T11:30:58;6.10;;;2.10;;
4674;SDS011;2351;50.812;12.872;2023-12-20T11:33:35;8.20;;;2.17;;
4674;SDS011;2351;50.812;12.872;2023-12-20T11:36:12;4.07;;;2.10;;
4674;SDS011;2351;50.812;12.872;2023-12-20T11:38:50;4.57;;;1.87;;
4674;SDS011;2351;50.812;12.872;2023-12-20T11:41:27;5.23;;;2.20;;
4674;SDS011;2351;50.812;12.872;2023-12-20T11:43:59;2.33;;;1.80;;
4674;SDS011;2351;50.812;12.872;2023-12-20T11:46:34;3.47;;;2.70;;
4674;SDS011;2351;50.812;12.872;2023-12-20T11:49:06;2.10;;;1.83;;
4674;SDS011;2351;50.812;12.872;2023-12-20T11:51:40;3.83;;;1.67;;
4674;SDS011;2351;50.812;12.872;2023-12-20T11:54:12;3.27;;;1.80;;
4674;SDS011;2351;50.812;12.872;2023-12-20T11:56:45;3.90;;;2.03;;
4674;SDS011;2351;50.812;12.872;2023-12-20T11:59:17;3.67;;;2.10;;
4674;SDS011;2351;50.812;12.872;2023-12-20T12:01:51;3.83;;;1.90;;
4674;SDS011;2351;50.812;12.872;2023-12-20T12:04:25;2.13;;;1.70;;
4674;SDS011;2351;50.812;12.872;2023-12-20T12:06:57;12.80;;;2.53;;
4674;SDS011;2351;50.812;12.872;2023-12-20T12:09:29;2.80;;;1.73;;
4674;SDS011;2351;50.812;12.872;2023-12-20T12:12:00;5.27;;;2.00;;
4674;SDS011;2351;50.812;12.872;2023-12-20T12:14:33;3.80;;;2.00;;
4674;SDS011;2351;50.812;12.872;2023-12-20T12:17:07;3.17;;;1.70;;
4674;SDS011;2351;50.812;12.872;2023-12-20T12:19:42;7.17;;;1.63;;
4674;SDS011;2351;50.812;12.872;2023-12-20T12:22:15;5.87;;;1.80;;
4674;SDS011;2351;50.812;12.872;2023-12-20T12:24:49;8.23;;;2.57;;
4674;SDS011;2351;50.812;12.872;2023-12-20T12:27:21;6.40;;;1.80;;
4674;SDS011;2351;50.812;12.872;2023-12-20T12:30:03;3.90;;;1.50;;
4674;SDS011;2351;50.812;12.872;2023-12-20T12:32:38;2.53;;;1.93;;
4674;SDS011;2351;50.812;12.872;2023-12-20T12:35:11;2.60;;;2.10;;
4674;SDS011;2351;50.812;12.872;2023-12-20T12:37:43;4.67;;;1.63;;
4674;SDS011;2351;50.812;12.872;2023-12-20T12:40:15;2.37;;;1.80;;
4674;SDS011;2351;50.812;12.872;2023-12-20T12:42:49;4.47;;;1.67;;
4674;SDS011;2351;50.812;12.872;2023-12-20T12:45:21;2.07;;;1.37;;
4674;SDS011;2351;50.812;12.872;2023-12-20T12:47:56;2.53;;;1.80;;
4674;SDS011;2351;50.812;12.872;2023-12-20T12:50:28;2.27;;;1.50;;
4674;SDS011;2351;50.812;12.872;2023-12-20T12:53:00;4.57;;;1.80;;
4674;SDS011;2351;50.812;12.872;2023-12-20T12:55:32;2.00;;;1.00;;
4674;SDS011;2351;50.812;12.872;2023-12-20T12:58:06;2.57;;;1.80;;
4674;SDS011;2351;50.812;12.872;2023-12-20T13:00:38;2.93;;;1.57;;
4674;SDS011;2351;50.812;12.872;2023-12-20T13:03:11;1.60;;;1.10;;
4674;SDS011;2351;50.812;12.872;2023-12-20T13:05:43;2.13;;;1.87;;
4674;SDS011;2351;50.812;12.872;2023-12-20T13:08:14;3.33;;;1.67;;
4674;SDS011;2351;50.812;12.872;2023-12-20T13:10:46;7.07;;;3.77;;
4674;SDS011;2351;50.812;12.872;2023-12-20T13:13:18;4.20;;;1.67;;
4674;SDS011;2351;50.812;12.872;2023-12-20T13:15:50;7.10;;;2.00;;
4674;SDS011;2351;50.812;12.872;2023-12-20T13:18:26;6.57;;;1.70;;
4674;SDS011;2351;50.812;12.872;2023-12-20T13:20:58;2.13;;;1.50;;
4674;SDS011;2351;50.812;12.872;2023-12-20T13:23:30;12.03;;;1.60;;
4674;SDS011;2351;50.812;12.872;2023-12-20T13:26:02;2.23;;;1.20;;
4674;SDS011;2351;50.812;12.872;2023-12-20T13:28:34;1.80;;;1.50;;
4674;SDS011;2351;50.812;12.872;2023-12-20T13:31:06;1.70;;;1.60;;
4674;SDS011;2351;50.812;12.872;2023-12-20T13:33:39;2.80;;;2.23;;
4674;SDS011;2351;50.812;12.872;2023-12-20T13:36:11;4.43;;;1.30;;
4674;SDS011;2351;50.812;12.872;2023-12-20T13:38:43;4.43;;;1.70;;
4674;SDS011;2351;50.812;12.872;2023-12-20T13:41:15;6.10;;;1.53;;
4674;SDS011;2351;50.812;12.872;2023-12-20T13:43:47;2.40;;;1.70;;
4674;SDS011;2351;50.812;12.872;2023-12-20T13:46:18;7.07;;;1.80;;
4674;SDS011;2351;50.812;12.872;2023-12-20T13:48:51;2.20;;;1.47;;
4674;SDS011;2351;50.812;12.872;2023-12-20T13:51:23;3.70;;;1.97;;
4674;SDS011;2351;50.812;12.872;2023-12-20T13:53:55;5.70;;;1.17;;
4674;SDS011;2351;50.812;12.872;2023-12-20T13:56:27;1.93;;;1.17;;
4674;SDS011;2351;50.812;12.872;2023-12-20T13:58:59;2.50;;;1.30;;
4674;SDS011;2351;50.812;12.872;2023-12-20T14:01:31;1.40;;;1.30;;
4674;SDS011;2351;50.812;12.872;2023-12-20T14:04:04;2.60;;;1.27;;
4674;SDS011;2351;50.812;12.872;2023-12-20T14:06:37;1.93;;;1.40;;
4674;SDS011;2351;50.812;12.872;2023-12-20T14:09:08;2.33;;;1.40;;
4674;SDS011;2351;50.812;12.872;2023-12-20T14:11:42;3.37;;;1.50;;
4674;SDS011;2351;50.812;12.872;2023-12-20T14:14:13;3.20;;;1.33;;
4674;SDS011;2351;50.812;12.872;2023-12-20T14:16:45;4.00;;;1.37;;
4674;SDS011;2351;50.812;12.872;2023-12-20T14:19:18;2.50;;;1.90;;
4674;SDS011;2351;50.812;12.872;2023-12-20T14:21:50;3.80;;;1.60;;
4674;SDS011;2351;50.812;12.872;2023-12-20T14:24:22;3.03;;;1.70;;
4674;SDS011;2351;50.812;12.872;2023-12-20T14:26:55;7.37;;;1.30;;
4674;SDS011;2351;50.812;12.872;2023-12-20T14:29:28;2.40;;;1.50;;
4674;SDS011;2351;50.812;12.872;2023-12-20T14:32:00;2.70;;;1.93;;
4674;SDS011;2351;50.812;12.872;2023-12-20T14:34:34;3.10;;;1.20;;
4674;SDS011;2351;50.812;12.872;2023-12-20T14:37:06;7.87;;;1.40;;
4674;SDS011;2351;50.812;12.872;2023-12-20T14:39:38;2.00;;;1.33;;
4674;SDS011;2351;50.812;12.872;2023-12-20T14:42:11;1.50;;;1.30;;
4674;SDS011;2351;50.812;12.872;2023-12-20T14:44:44;3.50;;;1.50;;
4674;SDS011;2351;50.812;12.872;2023-12-20T14:47:15;1.80;;;1.47;;
4674;SDS011;2351;50.812;12.872;2023-12-20T14:49:48;2.93;;;1.30;;
4674;SDS011;2351;50.812;12.872;2023-12-20T14:52:20;4.70;;;1.60;;
4674;SDS011;2351;50.812;12.872;2023-12-20T14:54:53;1.43;;;1.23;;
4674;SDS011;2351;50.812;12.872;2023-12-20T14:57:25;1.23;;;1.13;;
4674;SDS011;2351;50.812;12.872;2023-12-20T14:59:57;4.30;;;1.50;;
4674;SDS011;2351;50.812;12.872;2023-12-20T15:02:28;2.00;;;1.40;;
4674;SDS011;2351;50.812;12.872;2023-12-20T15:05:02;2.57;;;1.63;;
4674;SDS011;2351;50.812;12.872;2023-12-20T15:07:35;7.30;;;1.67;;
4674;SDS011;2351;50.812;12.872;2023-12-20T15:10:07;6.70;;;2.07;;
4674;SDS011;2351;50.812;12.872;2023-12-20T15:12:39;5.57;;;1.70;;
4674;SDS011;2351;50.812;12.872;2023-12-20T15:15:11;3.90;;;1.63;;
4674;SDS011;2351;50.812;12.872;2023-12-20T15:17:43;4.37;;;1.50;;
4674;SDS011;2351;50.812;12.872;2023-12-20T15:20:17;3.37;;;1.53;;
4674;SDS011;2351;50.812;12.872;2023-12-20T15:22:50;1.50;;;1.40;;
4674;SDS011;2351;50.812;12.872;2023-12-20T15:25:22;2.93;;;1.27;;
4674;SDS011;2351;50.812;12.872;2023-12-20T15:27:54;2.87;;;1.70;;
4674;SDS011;2351;50.812;12.872;2023-12-20T15:30:25;7.80;;;2.00;;
4674;SDS011;2351;50.812;12.872;2023-12-20T15:32:57;8.03;;;3.07;;